createdAt,value
2018-11-22T12:48:17.403Z,20.10
2018-11-22T12:50:58.827Z,20.20
2018-11-22T12:53:40.198Z,20.30
2018-11-22T12:56:21.968Z,20.50
2018-11-22T12:59:03.656Z,20.40
2018-11-22T13:01:45.404Z,20.20
2018-11-22T13:04:28.471Z,20.00
2018-11-22T13:07:09.342Z,20.00
2018-11-22T13:09:51.035Z,20.20
2018-11-22T13:12:32.421Z,20.40
2018-11-22T13:15:17.519Z,20.40
2018-11-22T13:17:58.871Z,20.30
2018-11-22T13:20:39.642Z,20.20
2018-11-22T13:23:21.541Z,20.00
2018-11-22T13:26:03.238Z,19.90
2018-11-22T13:28:44.937Z,19.70
2018-11-22T13:31:26.537Z,19.60
2018-11-22T13:34:08.027Z,19.50
2018-11-22T13:36:49.687Z,19.50
2018-11-22T13:39:31.820Z,19.50
2018-11-22T13:42:13.376Z,19.50
2018-11-22T13:44:55.088Z,19.50
2018-11-22T13:47:36.781Z,19.40
2018-11-22T13:50:19.681Z,19.20
2018-11-22T13:53:02.612Z,19.10
2018-11-22T13:55:44.323Z,19.00
2018-11-22T13:58:26.090Z,18.80
2018-11-22T14:01:07.285Z,18.70
2018-11-22T14:03:48.953Z,18.70
2018-11-22T14:06:31.076Z,18.60
2018-11-22T14:09:12.360Z,18.50
2018-11-22T14:11:54.646Z,18.40
2018-11-22T14:14:36.171Z,18.40
2018-11-22T14:17:17.849Z,18.30
2018-11-22T14:19:59.632Z,18.30
2018-11-22T14:22:41.918Z,18.20
2018-11-22T14:25:23.096Z,18.20
2018-11-22T14:28:04.817Z,18.10
2018-11-22T14:30:46.581Z,18.00
2018-11-22T14:33:28.172Z,17.90
2018-11-22T14:36:09.992Z,17.80
2018-11-22T14:38:51.680Z,17.80
2018-11-22T14:41:33.371Z,17.70
2018-11-22T14:44:15.074Z,17.70
2018-11-22T14:46:56.832Z,17.60
2018-11-22T14:49:38.338Z,17.60
2018-11-22T14:52:20.213Z,17.60
2018-11-22T14:55:01.729Z,17.50
2018-11-22T14:57:43.493Z,17.50
2018-11-22T15:00:26.007Z,17.50
2018-11-22T15:03:08.398Z,17.50
2018-11-22T15:05:49.495Z,17.40
2018-11-22T15:08:31.545Z,17.40
2018-11-22T15:11:12.767Z,17.40
2018-11-22T15:13:54.662Z,17.30
2018-11-22T15:16:36.183Z,17.30
2018-11-22T15:19:17.868Z,17.20
2018-11-22T15:21:59.560Z,17.10
2018-11-22T15:24:41.846Z,17.10
2018-11-22T15:27:22.917Z,17.00
2018-11-22T15:30:04.746Z,17.00
2018-11-22T15:32:46.343Z,16.90
2018-11-22T15:35:29.352Z,16.80
2018-11-22T15:38:11.528Z,16.70
2018-11-22T15:40:52.498Z,16.70
2018-11-22T15:43:34.028Z,16.60
2018-11-22T15:46:15.803Z,16.50
2018-11-22T15:48:57.591Z,16.40
2018-11-22T15:51:39.055Z,16.40
2018-11-22T15:54:20.373Z,16.30
2018-11-22T15:57:02.340Z,16.30
2018-11-22T15:59:43.744Z,16.20
2018-11-22T16:02:25.517Z,16.20
2018-11-22T16:05:07.106Z,16.10
2018-11-22T16:07:48.487Z,16.00
2018-11-22T16:10:32.100Z,16.00
2018-11-22T16:13:14.755Z,16.00
2018-11-22T16:15:56.529Z,15.90
2018-11-22T16:18:38.256Z,15.90
2018-11-22T16:21:19.714Z,15.90
2018-11-22T16:24:02.318Z,15.80
2018-11-22T16:26:43.446Z,15.80
2018-11-22T16:29:25.025Z,15.70
2018-11-22T16:32:06.081Z,15.60
2018-11-22T16:34:47.753Z,15.60
2018-11-22T16:37:29.532Z,15.50
2018-11-22T16:40:12.085Z,15.40
2018-11-22T16:42:55.210Z,15.40
2018-11-22T16:45:37.142Z,15.30
2018-11-22T16:48:18.989Z,15.30
2018-11-22T16:51:00.657Z,15.30
2018-11-22T16:53:42.351Z,15.30
2018-11-22T16:56:23.771Z,15.30
2018-11-22T16:59:05.340Z,15.30
2018-11-22T17:01:47.016Z,15.20
2018-11-22T17:04:28.470Z,15.20
2018-11-22T17:07:10.193Z,15.20
2018-11-22T17:09:52.840Z,15.20
2018-11-22T17:12:34.525Z,15.20
2018-11-22T17:15:18.847Z,15.20
2018-11-22T17:18:01.074Z,15.10
2018-11-22T17:20:42.774Z,15.10
2018-11-22T17:23:24.537Z,15.10
2018-11-22T17:26:06.380Z,15.10
2018-11-22T17:28:47.439Z,15.10
2018-11-22T17:31:29.195Z,15.10
2018-11-22T17:34:10.704Z,15.10
2018-11-22T17:36:52.294Z,15.00
2018-11-22T17:39:33.355Z,15.00
2018-11-22T17:42:15.273Z,15.00
2018-11-22T17:44:56.947Z,15.00
2018-11-22T17:47:38.767Z,15.00
2018-11-22T17:50:19.812Z,15.00
2018-11-22T17:53:01.809Z,15.00
2018-11-22T17:55:43.026Z,15.00
2018-11-22T17:58:24.807Z,15.00
2018-11-22T18:01:06.482Z,15.00
2018-11-22T18:03:47.975Z,15.00
2018-11-22T18:06:29.413Z,15.00
2018-11-22T18:09:10.643Z,15.00
2018-11-22T18:11:52.171Z,15.00
2018-11-22T18:14:33.619Z,15.00
2018-11-22T18:17:14.708Z,15.00
2018-11-22T18:19:56.569Z,15.00
2018-11-22T18:22:38.293Z,15.00
2018-11-22T18:25:21.202Z,15.00
2018-11-22T18:28:02.819Z,15.00
2018-11-22T18:30:44.254Z,15.00
2018-11-22T18:33:27.180Z,15.00
2018-11-22T18:36:08.685Z,15.00
2018-11-22T18:38:51.028Z,15.00
2018-11-22T18:41:32.248Z,15.00
2018-11-22T18:44:14.350Z,15.00
2018-11-22T18:46:55.784Z,15.00
2018-11-22T18:49:37.348Z,15.00
2018-11-22T18:52:18.541Z,15.00
2018-11-22T18:54:59.986Z,15.00
2018-11-22T18:57:41.369Z,15.00
2018-11-22T19:00:24.290Z,15.00
2018-11-22T19:03:06.488Z,15.00
2018-11-22T19:05:47.495Z,15.00
2018-11-22T19:08:28.969Z,15.00
2018-11-22T19:11:12.308Z,15.00
2018-11-22T19:13:53.463Z,15.00
2018-11-22T19:16:35.050Z,15.00
2018-11-22T19:19:16.641Z,15.00
2018-11-22T19:21:58.153Z,15.00
2018-11-22T19:24:40.128Z,14.90
2018-11-22T19:27:21.529Z,14.90
2018-11-22T19:30:03.808Z,14.90
2018-11-22T19:32:45.444Z,14.80
2018-11-22T19:35:27.736Z,14.80
2018-11-22T19:38:09.092Z,14.80
2018-11-22T19:40:51.294Z,14.80
2018-11-22T19:43:32.405Z,14.80
2018-11-22T19:46:14.779Z,14.80
2018-11-22T19:48:56.579Z,14.80
2018-11-22T19:51:38.359Z,14.80
2018-11-22T19:54:19.175Z,14.70
2018-11-22T19:57:01.033Z,14.80
2018-11-22T19:59:42.444Z,14.70
2018-11-22T20:02:24.311Z,14.70
2018-11-22T20:05:05.842Z,14.70
2018-11-22T20:07:48.161Z,14.70
2018-11-22T20:10:31.163Z,14.70
2018-11-22T20:13:12.424Z,14.70
2018-11-22T20:15:54.405Z,14.70
2018-11-22T20:18:36.099Z,14.70
2018-11-22T20:21:18.506Z,14.70
2018-11-22T20:23:59.718Z,14.60
2018-11-22T20:26:41.479Z,14.60
2018-11-22T20:29:22.860Z,14.60
2018-11-22T20:32:05.473Z,14.60
2018-11-22T20:34:47.592Z,14.60
2018-11-22T20:37:29.489Z,14.60
2018-11-22T20:40:11.595Z,14.60
2018-11-22T20:42:52.577Z,14.60
2018-11-22T20:45:40.673Z,14.60
2018-11-22T20:48:16.995Z,14.60
2018-11-22T20:50:58.680Z,14.60
2018-11-22T20:53:40.334Z,14.60
2018-11-22T20:56:21.848Z,14.60
2018-11-22T20:59:03.512Z,14.60
2018-11-22T21:01:48.662Z,14.50
2018-11-22T21:04:27.206Z,14.50
2018-11-22T21:07:08.994Z,14.50
2018-11-22T21:09:50.503Z,14.50
2018-11-22T21:12:32.275Z,14.50
2018-11-22T21:15:15.427Z,14.50
2018-11-22T21:17:58.729Z,14.50
2018-11-22T21:20:41.674Z,14.50
2018-11-22T21:23:23.581Z,14.50
2018-11-22T21:26:05.455Z,14.50
2018-11-22T21:28:46.811Z,14.50
2018-11-22T21:31:28.719Z,14.50
2018-11-22T21:34:10.411Z,14.50
2018-11-22T21:36:52.257Z,14.50
2018-11-22T21:39:33.588Z,14.50
2018-11-22T21:42:15.476Z,14.50
2018-11-22T21:44:56.868Z,14.50
2018-11-22T21:47:38.489Z,14.50
2018-11-22T21:50:21.976Z,14.50
2018-11-22T21:53:04.883Z,14.50
2018-11-22T21:55:47.053Z,14.50
2018-11-22T21:58:28.342Z,14.50
2018-11-22T22:01:09.712Z,14.50
2018-11-22T22:03:51.606Z,14.50
2018-11-22T22:06:32.688Z,14.50
2018-11-22T22:09:14.447Z,14.50
2018-11-22T22:11:56.450Z,14.40
2018-11-22T22:14:37.625Z,14.40
2018-11-22T22:17:19.239Z,14.40
2018-11-22T22:20:01.029Z,14.40
2018-11-22T22:22:43.130Z,14.40
2018-11-22T22:25:24.939Z,14.40
2018-11-22T22:28:05.788Z,14.30
2018-11-22T22:30:47.052Z,14.30
2018-11-22T22:33:28.761Z,14.30
2018-11-22T22:36:10.556Z,14.30
2018-11-22T22:38:52.660Z,14.30
2018-11-22T22:41:33.918Z,14.30
2018-11-22T22:44:15.609Z,14.30
2018-11-22T22:46:56.992Z,14.30
2018-11-22T22:49:38.580Z,14.30
2018-11-22T22:52:20.293Z,14.30
2018-11-22T22:55:01.862Z,14.40
2018-11-22T22:57:44.091Z,14.40
2018-11-22T23:00:30.362Z,14.40
2018-11-22T23:03:12.207Z,14.40
2018-11-22T23:05:53.867Z,14.40
2018-11-22T23:08:35.660Z,14.40
2018-11-22T23:11:17.367Z,14.40
2018-11-22T23:13:59.641Z,14.40
2018-11-22T23:16:40.938Z,14.40
2018-11-22T23:19:22.847Z,14.40
2018-11-22T23:22:04.635Z,14.40
2018-11-22T23:24:46.304Z,14.40
2018-11-22T23:27:28.523Z,14.40
2018-11-22T23:30:09.483Z,14.40
2018-11-22T23:32:53.457Z,14.40
2018-11-22T23:35:35.219Z,14.40
2018-11-22T23:38:16.802Z,14.40
2018-11-22T23:40:59.033Z,14.40
2018-11-22T23:43:40.289Z,14.40
2018-11-22T23:46:21.086Z,14.40
2018-11-22T23:49:01.835Z,14.40
2018-11-22T23:51:42.903Z,14.30
2018-11-22T23:54:25.310Z,14.30
2018-11-22T23:57:06.415Z,14.30
2018-11-22T23:59:48.046Z,14.20
